createdAt,value
2023-01-05T00:02:47.695Z,101085.44
2023-01-05T00:05:15.923Z,101088.25
2023-01-05T00:07:44.555Z,101084.13
2023-01-05T00:10:33.100Z,101082.78
2023-01-05T00:13:20.071Z,101086.09
2023-01-05T00:16:05.703Z,101080.16
2023-01-05T00:18:51.264Z,101083.59
2023-01-05T00:21:36.601Z,101083.28
2023-01-05T00:24:04.849Z,101081.81
2023-01-05T00:26:32.950Z,101084.44
2023-01-05T00:29:02.472Z,101076.38
2023-01-05T00:31:30.752Z,101080.47
2023-01-05T00:33:58.908Z,101076.88
2023-01-05T00:36:27.030Z,101077.69
2023-01-05T00:38:55.254Z,101084.28
2023-01-05T00:41:23.355Z,101090.69
2023-01-05T00:43:51.478Z,101082.78
2023-01-05T00:46:22.311Z,101081.81
2023-01-05T00:48:50.519Z,101084.94
2023-01-05T00:51:18.625Z,101081.47
2023-01-05T00:53:46.821Z,101084.78
2023-01-05T00:56:14.951Z,101075.56
2023-01-05T00:58:43.010Z,101084.94
2023-01-05T01:01:12.079Z,101086.13
2023-01-05T01:03:42.478Z,101089.72
2023-01-05T01:06:10.797Z,101084.78
2023-01-05T01:08:38.958Z,101088.09
2023-01-05T01:11:07.844Z,101086.47
2023-01-05T01:13:36.317Z,101075.41
2023-01-05T01:16:08.316Z,101082.16
2023-01-05T01:18:36.925Z,101074.72
2023-01-05T01:21:07.290Z,101084.13
2023-01-05T01:23:37.996Z,101086.09
2023-01-05T01:26:06.561Z,101074.88
2023-01-05T01:28:35.250Z,101081.81
2023-01-05T01:31:04.045Z,101076.84
2023-01-05T01:33:32.564Z,101075.22
2023-01-05T01:36:04.555Z,101077.16
2023-01-05T01:38:34.223Z,101076.53
2023-01-05T01:41:02.777Z,101076.84
2023-01-05T01:43:46.928Z,101075.50
2023-01-05T01:46:16.275Z,101073.03
2023-01-05T01:48:48.468Z,101071.38
2023-01-05T01:51:21.532Z,101078.63
2023-01-05T01:53:54.479Z,101073.34
2023-01-05T01:56:25.301Z,101065.91
2023-01-05T01:58:53.651Z,101074.97
2023-01-05T02:01:21.980Z,101062.63
2023-01-05T02:03:50.367Z,101067.06
2023-01-05T02:06:18.759Z,101069.22
2023-01-05T02:08:47.722Z,101060.97
2023-01-05T02:11:32.125Z,101058.03
2023-01-05T02:14:12.991Z,101049.97
2023-01-05T02:16:52.798Z,101053.09
2023-01-05T02:19:44.997Z,101035.00
2023-01-05T02:22:36.228Z,101044.22
2023-01-05T02:25:23.335Z,101037.81
2023-01-05T02:28:04.060Z,101037.97
2023-01-05T02:31:05.159Z,101038.13
2023-01-05T02:33:44.774Z,101037.97
2023-01-05T02:36:28.774Z,101025.94
2023-01-05T02:39:03.550Z,101030.06
2023-01-05T02:41:36.316Z,101031.88
2023-01-05T02:44:05.433Z,101026.75
2023-01-05T02:46:35.061Z,101033.69
2023-01-05T02:49:06.287Z,101035.66
2023-01-05T02:51:37.851Z,101026.94
2023-01-05T02:54:10.820Z,101025.13
2023-01-05T02:56:43.759Z,101023.13
2023-01-05T02:59:18.022Z,101021.19
2023-01-05T03:01:53.022Z,101024.47
2023-01-05T03:04:26.326Z,101012.44
2023-01-05T03:06:58.036Z,101006.84
2023-01-05T03:09:29.867Z,101005.03
2023-01-05T03:12:19.313Z,101006.66
2023-01-05T03:14:51.479Z,100992.34
2023-01-05T03:17:31.240Z,100992.16
2023-01-05T03:20:01.343Z,100992.81
2023-01-05T03:22:49.083Z,100979.63
2023-01-05T03:25:37.389Z,100977.84
2023-01-05T03:28:27.583Z,100971.72
2023-01-05T03:31:18.472Z,100972.06
2023-01-05T03:34:14.012Z,100971.25
2023-01-05T03:36:49.017Z,100970.75
2023-01-05T03:39:20.564Z,100976.50
2023-01-05T03:41:49.034Z,100985.56
2023-01-05T03:44:22.137Z,100973.38
2023-01-05T03:46:50.450Z,100972.88
2023-01-05T03:49:20.273Z,100975.19
2023-01-05T03:51:48.409Z,100964.97
2023-01-05T03:54:16.588Z,100958.06
2023-01-05T03:56:45.975Z,100955.59
2023-01-05T03:59:14.088Z,100951.78
2023-01-05T04:01:42.416Z,100948.16
2023-01-05T04:04:10.635Z,100948.47
2023-01-05T04:06:40.240Z,100934.97
2023-01-05T04:09:08.444Z,100932.31
2023-01-05T04:11:36.693Z,100925.09
2023-01-05T04:14:04.908Z,100930.19
2023-01-05T04:16:33.278Z,100930.84
2023-01-05T04:19:01.507Z,100921.09
2023-01-05T04:21:29.592Z,100911.41
2023-01-05T04:23:59.111Z,100914.69
2023-01-05T04:26:27.177Z,100907.78
2023-01-05T04:28:55.297Z,100913.19
2023-01-05T04:31:23.525Z,100922.78
2023-01-05T04:33:51.787Z,100928.03
2023-01-05T04:36:19.861Z,100924.41
2023-01-05T04:38:47.999Z,100924.09
2023-01-05T04:41:17.695Z,100921.44
2023-01-05T04:43:45.798Z,100918.81
2023-01-05T04:46:14.112Z,100921.28
2023-01-05T04:48:42.195Z,100913.34
2023-01-05T04:51:10.419Z,100912.03
2023-01-05T04:53:38.653Z,100921.44
2023-01-05T04:56:07.653Z,100929.19
2023-01-05T04:58:37.185Z,100925.56
2023-01-05T05:01:05.803Z,100922.59
2023-01-05T05:03:34.122Z,100924.41
2023-01-05T05:06:02.774Z,100925.06
2023-01-05T05:08:30.921Z,100921.09
2023-01-05T05:10:59.933Z,100921.09
2023-01-05T05:13:28.092Z,100908.72
2023-01-05T05:15:57.769Z,100914.97
2023-01-05T05:18:25.838Z,100918.09
2023-01-05T05:20:54.678Z,100913.00
2023-01-05T05:23:23.065Z,100910.53
2023-01-05T05:25:52.493Z,100908.06
2023-01-05T05:28:23.145Z,100900.31
2023-01-05T05:30:51.806Z,100899.97
2023-01-05T05:33:21.269Z,100904.09
2023-01-05T05:35:49.546Z,100897.16
2023-01-05T05:38:17.673Z,100898.50
2023-01-05T05:40:45.830Z,100892.91
2023-01-05T05:43:14.042Z,100889.25
2023-01-05T05:45:47.948Z,100887.63
2023-01-05T05:48:18.455Z,100874.28
2023-01-05T05:50:47.960Z,100870.97
2023-01-05T05:53:16.641Z,100859.78
2023-01-05T05:55:44.931Z,100869.34
2023-01-05T05:58:13.052Z,100862.25
2023-01-05T06:00:41.833Z,100851.69
2023-01-05T06:03:10.047Z,100851.06
2023-01-05T06:05:38.334Z,100852.34
2023-01-05T06:08:08.003Z,100855.97
2023-01-05T06:10:36.121Z,100862.88
2023-01-05T06:13:04.591Z,100854.97
2023-01-05T06:15:32.658Z,100851.69
2023-01-05T06:18:01.064Z,100853.34
2023-01-05T06:20:29.246Z,100847.06
2023-01-05T06:22:57.416Z,100842.16
2023-01-05T06:25:26.952Z,100843.28
2023-01-05T06:27:55.198Z,100839.16
2023-01-05T06:30:24.039Z,100835.69
2023-01-05T06:32:52.171Z,100834.88
2023-01-05T06:35:20.375Z,100826.97
2023-01-05T06:37:48.639Z,100818.91
2023-01-05T06:40:17.045Z,100821.69
2023-01-05T06:42:46.612Z,100806.66
2023-01-05T06:45:16.573Z,100812.75
2023-01-05T06:47:45.105Z,100811.78
2023-01-05T06:50:13.251Z,100802.22
2023-01-05T06:52:41.467Z,100795.16
2023-01-05T06:55:11.342Z,100795.47
2023-01-05T06:57:39.499Z,100796.59
2023-01-05T07:00:12.033Z,100785.50
2023-01-05T07:02:40.259Z,100779.91
2023-01-05T07:05:09.557Z,100781.03
2023-01-05T07:07:37.798Z,100770.28
2023-01-05T07:10:07.268Z,100762.03
2023-01-05T07:12:35.499Z,100752.78
2023-01-05T07:15:04.055Z,100750.28
2023-01-05T07:17:34.381Z,100746.50
2023-01-05T07:20:02.601Z,100736.09
2023-01-05T07:22:31.819Z,100733.63
2023-01-05T07:25:00.163Z,100733.63
2023-01-05T07:27:28.404Z,100725.91
2023-01-05T07:29:56.650Z,100719.00
2023-01-05T07:32:24.797Z,100722.44
2023-01-05T07:34:55.812Z,100725.44
2023-01-05T07:37:25.608Z,100708.13
2023-01-05T07:39:54.133Z,100705.13
2023-01-05T07:42:22.393Z,100703.59
2023-01-05T07:44:50.592Z,100702.16
2023-01-05T07:47:18.788Z,100692.41
2023-01-05T07:49:47.441Z,100687.97
2023-01-05T07:52:17.925Z,100684.16
2023-01-05T07:54:46.440Z,100677.50
2023-01-05T07:57:14.860Z,100669.25
2023-01-05T07:59:43.009Z,100669.72
2023-01-05T08:02:11.897Z,100664.91
2023-01-05T08:04:40.250Z,100664.72
2023-01-05T08:07:11.207Z,100656.81
2023-01-05T08:09:58.394Z,100656.63
2023-01-05T08:12:26.467Z,100649.38
2023-01-05T08:14:55.031Z,100653.47
2023-01-05T08:17:23.221Z,100657.75
2023-01-05T08:19:51.428Z,100651.50
2023-01-05T08:22:19.661Z,100651.94
2023-01-05T08:24:49.173Z,100666.00
2023-01-05T08:27:17.287Z,100659.72
2023-01-05T08:29:45.529Z,100663.78
2023-01-05T08:32:13.600Z,100653.91
2023-01-05T08:34:41.781Z,100659.19
2023-01-05T08:37:10.220Z,100657.16
2023-01-05T08:39:38.456Z,100641.78
2023-01-05T08:42:07.930Z,100644.09
2023-01-05T08:44:36.559Z,100644.72
2023-01-05T08:47:04.844Z,100652.44
2023-01-05T08:49:33.077Z,100651.63
2023-01-05T08:52:01.245Z,100638.41
2023-01-05T08:54:29.500Z,100649.25
2023-01-05T08:56:59.378Z,100648.91
2023-01-05T08:59:29.032Z,100663.75
2023-01-05T09:01:57.274Z,100660.09
2023-01-05T09:04:27.748Z,100668.69
2023-01-05T09:06:56.271Z,100672.97
2023-01-05T09:09:25.536Z,100663.22
2023-01-05T09:11:53.742Z,100671.97
2023-01-05T09:14:22.037Z,100668.31
2023-01-05T09:17:08.027Z,100668.78
2023-01-05T09:19:37.077Z,100666.13
2023-01-05T09:22:05.671Z,100653.59
2023-01-05T09:24:33.812Z,100665.78
2023-01-05T09:27:03.755Z,100658.06
2023-01-05T09:29:31.929Z,100656.03
2023-01-05T09:32:01.490Z,100661.13
2023-01-05T09:34:29.794Z,100655.03
2023-01-05T09:36:57.867Z,100646.09
2023-01-05T09:39:26.187Z,100651.03
2023-01-05T09:41:56.633Z,100629.25
2023-01-05T09:44:31.702Z,100646.28
2023-01-05T09:47:05.954Z,100639.84
2023-01-05T09:49:35.481Z,100644.72
2023-01-05T09:52:09.479Z,100637.09
2023-01-05T09:54:39.171Z,100636.25
2023-01-05T09:57:14.156Z,100633.47
2023-01-05T09:59:45.609Z,100622.22
2023-01-05T10:02:22.005Z,100611.66
2023-01-05T10:04:52.575Z,100619.69
2023-01-05T10:07:35.908Z,100618.50
2023-01-05T10:10:14.268Z,100610.31
2023-01-05T10:13:03.472Z,100604.66
2023-01-05T10:15:37.789Z,100599.19
2023-01-05T10:18:14.367Z,100605.94
2023-01-05T10:20:52.187Z,100606.91
2023-01-05T10:23:39.455Z,100615.13
2023-01-05T10:26:14.329Z,100614.94
2023-01-05T10:28:48.792Z,100601.34
2023-01-05T10:31:24.658Z,100614.75
2023-01-05T10:34:05.023Z,100630.25
2023-01-05T10:37:07.513Z,100608.56
2023-01-05T10:39:57.031Z,100608.84
2023-01-05T10:42:38.068Z,100598.69
2023-01-05T10:45:11.423Z,100598.13
2023-01-05T10:47:41.301Z,100596.31
2023-01-05T10:50:29.141Z,100594.13
2023-01-05T10:52:59.061Z,100587.66
2023-01-05T10:55:29.971Z,100585.47
2023-01-05T10:57:58.034Z,100591.56
2023-01-05T11:00:41.930Z,100577.13
2023-01-05T11:03:15.398Z,100577.94
2023-01-05T11:05:47.472Z,100584.50
2023-01-05T11:08:18.236Z,100591.41
2023-01-05T11:10:56.702Z,100590.44
2023-01-05T11:13:31.968Z,100588.06
2023-01-05T11:16:04.417Z,100586.69
2023-01-05T11:18:36.876Z,100585.00
2023-01-05T11:21:15.735Z,100568.78
2023-01-05T11:23:46.042Z,100562.66
2023-01-05T11:26:31.932Z,100563.94
2023-01-05T11:29:12.250Z,100559.47
2023-01-05T11:31:45.908Z,100545.88
2023-01-05T11:34:39.023Z,100544.41
2023-01-05T11:37:18.538Z,100532.63
2023-01-05T11:39:52.352Z,100526.34
2023-01-05T11:42:25.793Z,100525.31
2023-01-05T11:44:56.758Z,100512.72
2023-01-05T11:47:29.089Z,100518.47
2023-01-05T11:50:08.770Z,100517.28
2023-01-05T11:52:42.006Z,100499.78
2023-01-05T11:55:31.898Z,100497.13
2023-01-05T11:58:19.188Z,100486.78
2023-01-05T12:01:12.128Z,100487.59
2023-01-05T12:03:59.038Z,100486.78
2023-01-05T12:06:42.345Z,100481.88
2023-01-05T12:09:18.738Z,100479.47
2023-01-05T12:11:58.222Z,100480.47
2023-01-05T12:14:44.133Z,100484.31
2023-01-05T12:17:15.637Z,100464.97
2023-01-05T12:19:58.454Z,100468.19
2023-01-05T12:22:49.358Z,100463.56
2023-01-05T12:25:43.382Z,100454.81
2023-01-05T12:28:41.478Z,100448.50
2023-01-05T12:34:32.918Z,100429.06
2023-01-05T12:37:19.339Z,100435.63
2023-01-05T12:40:16.418Z,100432.19
2023-01-05T12:43:02.452Z,100415.28
2023-01-05T12:45:57.872Z,100404.94
2023-01-05T12:48:30.657Z,100401.94
2023-01-05T12:51:04.748Z,100399.28
2023-01-05T12:53:46.481Z,100404.22
2023-01-05T12:56:19.360Z,100403.19
2023-01-05T12:58:58.393Z,100401.19
2023-01-05T13:01:31.113Z,100399.78
2023-01-05T13:04:05.349Z,100401.19
2023-01-05T13:06:39.193Z,100392.22
2023-01-05T13:09:14.883Z,100394.88
2023-01-05T13:11:48.975Z,100394.66
2023-01-05T13:14:21.433Z,100392.66
2023-01-05T13:16:58.336Z,100384.50
2023-01-05T13:19:31.957Z,100377.59
2023-01-05T13:22:04.279Z,100371.28
2023-01-05T13:24:36.877Z,100380.25
2023-01-05T13:27:05.574Z,100367.78
2023-01-05T13:29:40.238Z,100361.72
2023-01-05T13:32:40.844Z,100336.25
2023-01-05T13:35:40.603Z,100328.47
2023-01-05T13:38:43.071Z,100337.81
2023-01-05T13:41:25.940Z,100326.41
2023-01-05T13:44:23.088Z,100321.34
2023-01-05T13:47:13.141Z,100314.38
2023-01-05T13:50:12.775Z,100304.81
2023-01-05T13:52:59.659Z,100294.22
2023-01-05T13:55:29.463Z,100292.84
2023-01-05T13:57:57.911Z,100273.28
2023-01-05T14:00:28.730Z,100275.56
2023-01-05T14:03:24.016Z,100257.19
2023-01-05T14:05:55.019Z,100241.75
2023-01-05T14:08:27.962Z,100242.56
2023-01-05T14:11:14.472Z,100227.50
2023-01-05T14:13:52.638Z,100218.97
2023-01-05T14:16:55.853Z,100213.88
2023-01-05T14:19:28.162Z,100204.09
2023-01-05T14:22:42.523Z,100198.00
2023-01-05T14:25:49.162Z,100179.09
2023-01-05T14:28:42.286Z,100195.97
2023-01-05T14:31:49.888Z,100178.06
2023-01-05T14:34:21.807Z,100179.47
2023-01-05T14:37:07.429Z,100166.03
2023-01-05T14:39:46.254Z,100155.25
2023-01-05T14:42:28.265Z,100148.94
2023-01-05T14:45:01.153Z,100153.00
2023-01-05T14:47:40.839Z,100152.78
2023-01-05T14:50:27.960Z,100136.72
2023-01-05T14:53:00.624Z,100146.47
2023-01-05T14:55:40.042Z,100136.91
2023-01-05T14:58:14.307Z,100137.94
2023-01-05T15:00:48.071Z,100122.66
2023-01-05T15:03:25.947Z,100123.09
2023-01-05T15:06:01.796Z,100128.16
2023-01-05T15:09:11.274Z,100126.94
2023-01-05T15:12:02.727Z,100123.06
2023-01-05T15:14:53.102Z,100114.31
2023-01-05T15:17:54.698Z,100105.94
2023-01-05T15:20:46.981Z,100097.75
2023-01-05T15:23:34.734Z,100096.13
2023-01-05T15:26:22.813Z,100082.91
2023-01-05T15:29:29.512Z,100072.50
2023-01-05T15:32:00.952Z,100071.69
2023-01-05T15:34:36.752Z,100077.00
2023-01-05T15:37:12.877Z,100065.81
2023-01-05T15:39:47.878Z,100057.44
2023-01-05T15:42:19.916Z,100046.28
2023-01-05T15:44:52.155Z,100053.19
2023-01-05T15:47:21.352Z,100039.34
2023-01-05T15:49:51.172Z,100041.38
2023-01-05T15:52:22.604Z,100046.88
2023-01-05T15:55:02.921Z,100033.03
2023-01-05T15:57:31.289Z,100026.72
2023-01-05T16:00:00.970Z,100025.91
2023-01-05T16:02:31.505Z,100015.72
2023-01-05T16:05:11.135Z,100014.47
2023-01-05T16:07:43.825Z,100007.16
2023-01-05T16:10:24.943Z,100002.28
2023-01-05T16:12:58.277Z,99998.22
2023-01-05T16:15:28.334Z,100007.56
2023-01-05T16:17:57.859Z,100036.66
2023-01-05T16:20:27.345Z,100048.47
2023-01-05T16:23:08.240Z,100035.03
2023-01-05T16:25:41.884Z,100043.28
2023-01-05T16:28:17.719Z,100037.16
2023-01-05T16:30:48.367Z,100054.44
2023-01-05T16:33:34.788Z,100051.75
2023-01-05T16:36:13.605Z,100058.44
2023-01-05T16:38:42.230Z,100061.06
2023-01-05T16:41:13.606Z,100058.19
2023-01-05T16:43:50.518Z,100061.34
2023-01-05T16:46:37.911Z,100063.97
2023-01-05T16:49:34.985Z,100053.38
2023-01-05T16:52:04.345Z,100053.19
2023-01-05T16:54:39.651Z,100049.34
2023-01-05T16:57:33.502Z,100053.38
2023-01-05T17:00:01.910Z,100062.88
2023-01-05T17:02:44.330Z,100061.66
2023-01-05T17:05:15.771Z,100064.47
2023-01-05T17:07:45.833Z,100053.09
2023-01-05T17:10:24.174Z,100048.59
2023-01-05T17:12:58.989Z,100059.75
2023-01-05T17:15:31.822Z,100070.72
2023-01-05T17:18:02.036Z,100041.25
2023-01-05T17:20:33.983Z,100068.38
2023-01-05T17:23:03.415Z,100073.22
2023-01-05T17:25:34.868Z,100075.84
2023-01-05T17:28:03.011Z,100089.06
2023-01-05T17:30:31.144Z,100089.81
2023-01-05T17:32:59.421Z,100079.28
2023-01-05T17:35:29.345Z,100091.34
2023-01-05T17:37:57.525Z,100075.50
2023-01-05T17:40:25.904Z,100071.84
2023-01-05T17:42:54.073Z,100083.19
2023-01-05T17:45:26.281Z,100091.47
2023-01-05T17:47:55.393Z,100092.66
2023-01-05T17:50:27.022Z,100090.19
2023-01-05T17:52:57.635Z,100100.94
2023-01-05T17:55:26.657Z,100105.03
2023-01-05T17:57:55.417Z,100109.88
2023-01-05T18:00:25.476Z,100091.16
2023-01-05T18:02:55.333Z,100082.16
2023-01-05T18:05:23.827Z,100081.09
2023-01-05T18:07:52.355Z,100087.19
2023-01-05T18:10:26.688Z,100098.13
2023-01-05T18:12:56.663Z,100095.22
2023-01-05T18:17:57.962Z,100087.31
2023-01-05T18:20:26.103Z,100097.88
2023-01-05T18:22:54.495Z,100106.34
2023-01-05T18:25:24.069Z,100101.44
2023-01-05T18:27:52.254Z,100101.38
2023-01-05T18:30:21.120Z,100102.19
2023-01-05T18:32:49.342Z,100121.81
2023-01-05T18:35:17.907Z,100115.66
2023-01-05T18:37:46.439Z,100122.56
2023-01-05T18:40:15.534Z,100125.19
2023-01-05T18:42:45.244Z,100123.97
2023-01-05T18:45:19.666Z,100136.09
2023-01-05T18:47:57.843Z,100132.91
2023-01-05T18:50:26.273Z,100143.00
2023-01-05T18:52:54.671Z,100145.56
2023-01-05T18:55:22.989Z,100147.84
2023-01-05T18:57:52.484Z,100147.84
2023-01-05T19:00:21.154Z,100152.28
2023-01-05T19:02:49.337Z,100149.66
2023-01-05T19:05:17.648Z,100152.66
2023-01-05T19:07:45.871Z,100156.91
2023-01-05T19:10:14.120Z,100153.00
2023-01-05T19:12:42.312Z,100160.47
2023-01-05T19:15:13.126Z,100173.19
2023-01-05T19:17:41.292Z,100177.00
2023-01-05T19:20:10.459Z,100186.38
2023-01-05T19:22:40.137Z,100184.38
2023-01-05T19:25:09.041Z,100188.19
2023-01-05T19:27:37.166Z,100199.56
2023-01-05T19:30:06.004Z,100202.66
2023-01-05T19:32:36.949Z,100206.91
2023-01-05T19:35:06.245Z,100203.47
2023-01-05T19:37:35.638Z,100214.00
2023-01-05T19:40:03.848Z,100210.56
2023-01-05T19:42:32.420Z,100218.16
2023-01-05T19:45:00.561Z,100221.81
2023-01-05T19:47:28.613Z,100221.19
2023-01-05T19:49:58.230Z,100230.78
2023-01-05T19:52:29.851Z,100229.97
2023-01-05T19:54:58.026Z,100224.41
2023-01-05T19:57:26.281Z,100214.91
2023-01-05T19:59:54.556Z,100214.78
2023-01-05T20:02:22.755Z,100224.69
2023-01-05T20:04:50.946Z,100225.50
2023-01-05T20:07:20.714Z,100217.59
2023-01-05T20:09:50.548Z,100230.78
2023-01-05T20:12:18.935Z,100231.16
2023-01-05T20:14:47.149Z,100238.38
2023-01-05T20:17:17.579Z,100251.75
2023-01-05T20:19:45.672Z,100247.63
2023-01-05T20:22:14.969Z,100240.41
2023-01-05T20:24:44.811Z,100238.56
2023-01-05T20:27:15.122Z,100230.22
2023-01-05T20:29:44.059Z,100243.44
2023-01-05T20:32:14.740Z,100236.53
2023-01-05T20:34:45.301Z,100240.53
2023-01-05T20:37:13.741Z,100259.09
2023-01-05T20:39:44.431Z,100258.78
2023-01-05T20:42:14.120Z,100269.31
2023-01-05T20:44:45.344Z,100268.47
2023-01-05T20:47:13.895Z,100273.28
2023-01-05T20:49:44.709Z,100266.84
2023-01-05T20:52:14.452Z,100275.56
2023-01-05T20:54:44.611Z,100266.50
2023-01-05T20:57:13.187Z,100262.41
2023-01-05T20:59:41.686Z,100275.25
2023-01-05T21:02:23.504Z,100279.13
2023-01-05T21:04:53.093Z,100277.81
2023-01-05T21:07:21.822Z,100275.53
2023-01-05T21:09:52.971Z,100283.44
2023-01-05T21:12:21.948Z,100285.72
2023-01-05T21:14:50.088Z,100296.59
2023-01-05T21:17:18.315Z,100302.22
2023-01-05T21:19:46.564Z,100285.00
2023-01-05T21:22:14.695Z,100292.75
2023-01-05T21:24:43.020Z,100276.94
2023-01-05T21:27:12.750Z,100294.09
2023-01-05T21:29:40.900Z,100290.97
2023-01-05T21:32:09.019Z,100297.94
2023-01-05T21:34:37.143Z,100299.09
2023-01-05T21:37:06.499Z,100295.81
2023-01-05T21:39:34.729Z,100307.31
2023-01-05T21:42:20.489Z,100311.44
2023-01-05T21:44:49.931Z,100314.59
2023-01-05T21:47:18.446Z,100313.44
2023-01-05T21:49:46.769Z,100316.25
2023-01-05T21:52:32.387Z,100333.69
2023-01-05T21:55:26.333Z,100331.19
2023-01-05T21:57:55.220Z,100336.97
2023-01-05T22:00:25.646Z,100351.81
2023-01-05T22:02:53.877Z,100333.06
2023-01-05T22:05:22.145Z,100348.84
2023-01-05T22:07:50.308Z,100339.28
2023-01-05T22:10:19.076Z,100326.13
2023-01-05T22:12:47.282Z,100331.06
2023-01-05T22:15:15.484Z,100341.91
2023-01-05T22:17:45.034Z,100337.03
2023-01-05T22:20:14.995Z,100337.69
2023-01-05T22:22:43.287Z,100334.22
2023-01-05T22:25:11.620Z,100334.41
2023-01-05T22:27:39.838Z,100342.13
2023-01-05T22:30:09.610Z,100337.38
2023-01-05T22:32:37.823Z,100337.84
2023-01-05T22:35:08.112Z,100338.38
2023-01-05T22:37:36.178Z,100343.94
2023-01-05T22:40:04.350Z,100352.53
2023-01-05T22:42:32.474Z,100333.13
2023-01-05T22:45:00.734Z,100364.66
2023-01-05T22:47:28.869Z,100357.78
2023-01-05T22:49:57.760Z,100365.19
2023-01-05T22:52:27.465Z,100367.34
2023-01-05T22:54:55.666Z,100364.22
2023-01-05T22:57:23.809Z,100354.34
2023-01-05T22:59:52.075Z,100370.28
2023-01-05T23:02:20.240Z,100380.47
2023-01-05T23:04:48.534Z,100372.28
2023-01-05T23:07:20.740Z,100392.13
2023-01-05T23:09:50.495Z,100384.75
2023-01-05T23:12:18.582Z,100388.88
2023-01-05T23:14:46.733Z,100399.88
2023-01-05T23:17:14.923Z,100403.16
2023-01-05T23:19:43.027Z,100396.25
2023-01-05T23:22:11.679Z,100403.81
2023-01-05T23:24:39.890Z,100397.91
2023-01-05T23:27:09.469Z,100409.41
2023-01-05T23:29:37.850Z,100404.47
2023-01-05T23:32:06.338Z,100421.22
2023-01-05T23:34:34.527Z,100415.47
2023-01-05T23:37:02.974Z,100415.66
2023-01-05T23:39:31.190Z,100413.53
2023-01-05T23:41:59.438Z,100421.72
2023-01-05T23:44:28.944Z,100419.91
2023-01-05T23:46:57.480Z,100419.75
2023-01-05T23:49:25.663Z,100430.41
2023-01-05T23:51:53.876Z,100414.31
2023-01-05T23:54:22.151Z,100416.31
2023-01-05T23:56:50.418Z,100410.25
2023-01-05T23:59:18.611Z,100414.00
